Time;durP1;ratioP1;P1;durP2;ratioP2;P2;SDS_P1;SDS_P2;PMS_P1;PMS_P2;Temp;Humidity;BMP_temperature;BMP_pressure;BME280_temperature;BME280_humidity;BME280_pressure;Samples;Min_cycle;Max_cycle;Signal;HPM_P1;HPM_P2
2020/07/22 00:01:07;;;;;;;6.8;4.4;;;;;;;19.17;84.06836;942.4846;;;;
2020/07/22 00:03:39;;;;;;;6.7;4.5;;;;;;;19.08;84.87793;942.4175;;;;
2020/07/22 00:06:16;;;;;;;6.2;4.8;;;;;;;19.1;84.49707;942.4736;;;;
2020/07/22 00:08:41;;;;;;;6.9;4.7;;;;;;;19.3;83.89453;942.4148;;;;
2020/07/22 00:11:05;;;;;;;6.4;5.4;;;;;;;19.1;85.41699;942.3832;;;;
2020/07/22 00:13:30;;;;;;;7.5;5.6;;;;;;;19.02;85.86719;942.4481;;;;
2020/07/22 00:16:01;;;;;;;7.6;5.6;;;;;;;18.77;87.11328;942.4056;;;;
2020/07/22 00:18:26;;;;;;;5.6;5;;;;;;;18.83;86.77441;942.3542;;;;
2020/07/22 00:20:51;;;;;;;7.4;5.4;;;;;;;18.8;87;942.4545;;;;
2020/07/22 00:23:16;;;;;;;7.8;5.5;;;;;;;18.84;86.61328;942.4872;;;;
2020/07/22 00:25:59;;;;;;;5.9;5.3;;;;;;;18.78;86.85742;942.5306;;;;
2020/07/22 00:28:24;;;;;;;7;5.1;;;;;;;18.92;86.34863;942.5312;;;;
2020/07/22 00:30:52;;;;;;;6;5.2;;;;;;;18.99;84.93066;942.5429;;;;
2020/07/22 00:33:17;;;;;;;7.2;5.1;;;;;;;19.08;84.20313;942.52;;;;
2020/07/22 00:35:50;;;;;;;8.8;5.3;;;;;;;19.01;85.11035;942.4973;;;;
2020/07/22 00:38:15;;;;;;;7.7;5.6;;;;;;;18.97;85.6377;942.4576;;;;
2020/07/22 00:40:40;;;;;;;7.9;6;;;;;;;18.96;86.06641;942.4756;;;;
2020/07/22 00:43:05;;;;;;;8.4;5.6;;;;;;;18.97;85.76563;942.5094;;;;
2020/07/22 00:45:35;;;;;;;7.5;5.4;;;;;;;19.05;85.28027;942.5519;;;;
2020/07/22 00:48:00;;;;;;;20.7;5.8;;;;;;;19.15;83.93848;942.4597;;;;
2020/07/22 00:50:25;;;;;;;7.1;5.2;;;;;;;19.11;84.48926;942.4283;;;;
2020/07/22 00:52:50;;;;;;;6.5;5.2;;;;;;;19.13;84.39941;942.4642;;;;
2020/07/22 00:55:16;;;;;;;6.8;5.3;;;;;;;19.12;84.17676;942.4247;;;;
2020/07/22 00:57:41;;;;;;;8.1;5.5;;;;;;;19.05;84.65137;942.4115;;;;
2020/07/22 01:00:34;;;;;;;7.8;5.6;;;;;;;18.77;85.66895;942.4227;;;;
2020/07/22 01:02:31;;;;;;;9.7;6;;;;;;;18.66;86.18262;942.4573;;;;
2020/07/22 01:04:56;;;;;;;6.6;5.4;;;;;;;18.71;85.94727;942.3703;;;;
2020/07/22 01:08:06;;;;;;;6.8;6.1;;;;;;;18.75;85.65332;942.3722;;;;
2020/07/22 01:10:32;;;;;;;7.6;5.7;;;;;;;;;;;;;
2020/07/22 01:12:56;;;;;;;7.1;5.6;;;;;;;;;;;;;
2020/07/22 01:15:26;;;;;;;7;5.1;;;;;;;;;;;;;
2020/07/22 01:17:51;;;;;;;5.9;5.2;;;;;;;;;;;;;
2020/07/22 01:20:17;;;;;;;6.6;5;;;;;;;;;;;;;
2020/07/22 01:22:42;;;;;;;9.2;5.7;;;;;;;;;;;;;
2020/07/22 01:25:07;;;;;;;7.9;5.6;;;;;;;;;;;;;
2020/07/22 01:27:32;;;;;;;7.4;5.4;;;;;;;;;;;;;
2020/07/22 01:29:57;;;;;;;7.4;5.5;;;;;;;;;;;;;
2020/07/22 01:32:23;;;;;;;7.2;5;;;;;;;;;;;;;
2020/07/22 01:34:47;;;;;;;8.8;5;;;;;;;;;;;;;
2020/07/22 01:37:13;;;;;;;9.1;5.4;;;;;;;;;;;;;
2020/07/22 01:39:38;;;;;;;6.5;4.7;;;;;;;;;;;;;
2020/07/22 01:42:03;;;;;;;6.9;5.5;;;;;;;;;;;;;
2020/07/22 01:44:28;;;;;;;6;5.4;;;;;;;;;;;;;
2020/07/22 01:46:53;;;;;;;7.6;5.5;;;;;;;;;;;;;
2020/07/22 01:49:19;;;;;;;7.6;5;;;;;;;;;;;;;
2020/07/22 01:51:44;;;;;;;7;5.2;;;;;;;;;;;;;
2020/07/22 01:54:09;;;;;;;6.7;5.1;;;;;;;;;;;;;
2020/07/22 01:56:34;;;;;;;7;5.2;;;;;;;;;;;;;
2020/07/22 01:58:59;;;;;;;5.3;4.8;;;;;;;;;;;;;
2020/07/22 02:01:24;;;;;;;7.4;5.2;;;;;;;;;;;;;
2020/07/22 02:03:50;;;;;;;6.5;5.4;;;;;;;;;;;;;
2020/07/22 02:06:15;;;;;;;7.4;5.2;;;;;;;;;;;;;
2020/07/22 02:08:40;;;;;;;6.6;5.3;;;;;;;;;;;;;
2020/07/22 02:11:05;;;;;;;7.1;5.4;;;;;;;;;;;;;
2020/07/22 02:13:30;;;;;;;9.8;5.5;;;;;;;;;;;;;
2020/07/22 02:15:56;;;;;;;6.9;5;;;;;;;;;;;;;
2020/07/22 02:18:21;;;;;;;5.9;5.3;;;;;;;;;;;;;
2020/07/22 02:20:46;;;;;;;6.7;5.1;;;;;;;;;;;;;
2020/07/22 02:23:11;;;;;;;6.1;5;;;;;;;;;;;;;
2020/07/22 02:25:36;;;;;;;8.9;5.1;;;;;;;;;;;;;
2020/07/22 02:28:02;;;;;;;10.4;5.7;;;;;;;;;;;;;
2020/07/22 02:30:27;;;;;;;8;5.5;;;;;;;;;;;;;
2020/07/22 02:32:52;;;;;;;7.5;5;;;;;;;;;;;;;
2020/07/22 02:35:17;;;;;;;7;5.3;;;;;;;;;;;;;
2020/07/22 02:37:42;;;;;;;8;5.2;;;;;;;;;;;;;
2020/07/22 02:40:08;;;;;;;6.2;5.2;;;;;;;;;;;;;
2020/07/22 02:42:33;;;;;;;7.7;5.4;;;;;;;;;;;;;
2020/07/22 02:44:58;;;;;;;6.1;5.2;;;;;;;;;;;;;
2020/07/22 02:47:23;;;;;;;6.3;4.8;;;;;;;;;;;;;
2020/07/22 02:49:48;;;;;;;8.4;5.4;;;;;;;;;;;;;
2020/07/22 02:52:13;;;;;;;7.1;5.3;;;;;;;;;;;;;
2020/07/22 02:54:38;;;;;;;7.2;5.1;;;;;;;;;;;;;
2020/07/22 02:57:04;;;;;;;6.1;5.3;;;;;;;;;;;;;
2020/07/22 02:59:30;;;;;;;5.8;5.2;;;;;;;;;;;;;
2020/07/22 03:01:55;;;;;;;6.9;5.7;;;;;;;;;;;;;
2020/07/22 03:04:21;;;;;;;7.1;5.2;;;;;;;;;;;;;
2020/07/22 03:06:46;;;;;;;5.9;4.9;;;;;;;;;;;;;
2020/07/22 03:09:12;;;;;;;5.4;4.9;;;;;;;;;;;;;
2020/07/22 03:11:37;;;;;;;7.9;5.2;;;;;;;;;;;;;
2020/07/22 03:14:03;;;;;;;7;5.4;;;;;;;;;;;;;
2020/07/22 03:16:28;;;;;;;7.5;5.2;;;;;;;;;;;;;
2020/07/22 03:18:55;;;;;;;7.7;5.3;;;;;;;;;;;;;
2020/07/22 03:21:21;;;;;;;9.9;5.4;;;;;;;;;;;;;
2020/07/22 03:23:47;;;;;;;9.4;5.4;;;;;;;;;;;;;
2020/07/22 03:26:12;;;;;;;8;5.4;;;;;;;;;;;;;
2020/07/22 03:28:38;;;;;;;10.7;5.5;;;;;;;;;;;;;
2020/07/22 03:31:03;;;;;;;9.9;5.3;;;;;;;;;;;;;
2020/07/22 03:33:28;;;;;;;8.9;5.2;;;;;;;;;;;;;
2020/07/22 03:35:54;;;;;;;5.7;5.1;;;;;;;;;;;;;
2020/07/22 03:38:19;;;;;;;6.1;5.3;;;;;;;;;;;;;
2020/07/22 03:40:44;;;;;;;6.7;5;;;;;;;;;;;;;
2020/07/22 03:43:11;;;;;;;8.1;5.1;;;;;;;;;;;;;
2020/07/22 03:45:36;;;;;;;9.3;4.8;;;;;;;;;;;;;
2020/07/22 03:48:02;;;;;;;8.1;5.1;;;;;;;;;;;;;
2020/07/22 03:50:27;;;;;;;7.5;5.2;;;;;;;;;;;;;
2020/07/22 03:52:52;;;;;;;8;5.5;;;;;;;;;;;;;
2020/07/22 03:55:17;;;;;;;6.4;4.9;;;;;;;;;;;;;
2020/07/22 03:57:44;;;;;;;8.3;5.2;;;;;;;;;;;;;
2020/07/22 04:02:27;;;;;;;7.2;5.2;;;;;;;17.65;84.37109;942.8461;;;;
2020/07/22 04:04:53;;;;;;;9.4;5.3;;;;;;;17.78;84.31445;942.912;;;;
2020/07/22 04:07:20;;;;;;;7.8;5.4;;;;;;;17.87;84.59863;942.9387;;;;
2020/07/22 04:09:45;;;;;;;10.3;5.4;;;;;;;17.95;83.97559;942.9409;;;;
2020/07/22 04:12:13;;;;;;;8.5;5.4;;;;;;;17.99;84.42383;942.884;;;;
2020/07/22 04:14:38;;;;;;;8.5;5.4;;;;;;;18.04;84.46973;942.8597;;;;
2020/07/22 04:17:03;;;;;;;9.9;5.5;;;;;;;18.05;84.30859;942.8917;;;;
2020/07/22 04:19:28;;;;;;;9.4;5.5;;;;;;;18.05;84.51758;942.8836;;;;
2020/07/22 04:21:53;;;;;;;8.8;5.3;;;;;;;18.12;84.00879;942.8756;;;;
2020/07/22 04:24:20;;;;;;;8.8;5.6;;;;;;;18.19;83.74316;942.9424;;;;
2020/07/22 04:26:45;;;;;;;11.7;5.2;;;;;;;18.24;83.41504;942.9712;;;;
2020/07/22 04:29:11;;;;;;;9.3;5.3;;;;;;;18.25;83.11621;942.9049;;;;
2020/07/22 04:31:37;;;;;;;12.2;5.4;;;;;;;18.24;83.46191;942.8848;;;;
2020/07/22 04:34:05;;;;;;;11.6;4.8;;;;;;;18.3;82.99707;942.9131;;;;
2020/07/22 04:36:30;;;;;;;7.5;4.9;;;;;;;18.34;83.16797;942.9448;;;;
2020/07/22 04:38:57;;;;;;;7.7;5;;;;;;;18.52;82.16602;942.9227;;;;
2020/07/22 04:41:25;;;;;;;6;4.9;;;;;;;18.54;82.49609;942.9949;;;;
2020/07/22 04:43:52;;;;;;;6.8;4.9;;;;;;;18.64;82.02441;943.0208;;;;
2020/07/22 04:46:18;;;;;;;6.6;4.8;;;;;;;18.56;82.45313;943.0139;;;;
2020/07/22 04:48:46;;;;;;;6.2;4.9;;;;;;;18.48;83.07715;943.0303;;;;
2020/07/22 04:51:11;;;;;;;6.8;5;;;;;;;18.57;82.60449;943.0131;;;;
2020/07/22 04:53:38;;;;;;;5.6;4.8;;;;;;;18.74;81.81055;942.9927;;;;
2020/07/22 04:56:03;;;;;;;6.2;5.3;;;;;;;18.86;81.10059;942.9581;;;;
2020/07/22 04:58:28;;;;;;;8.3;4.8;;;;;;;18.98;80.56348;942.9927;;;;
2020/07/22 05:00:54;;;;;;;10.2;4.7;;;;;;;19.09;79.97949;942.9783;;;;
2020/07/22 05:03:19;;;;;;;10.7;5.3;;;;;;;19.14;80.19727;942.9524;;;;
2020/07/22 05:05:49;;;;;;;7.3;4.7;;;;;;;19.16;79.45703;942.9158;;;;
2020/07/22 05:08:16;;;;;;;6.6;4.7;;;;;;;19.08;80.08301;942.9969;;;;
2020/07/22 05:10:41;;;;;;;6.1;4.6;;;;;;;18.98;81.36719;942.9564;;;;
2020/07/22 05:13:09;;;;;;;5.9;4.5;;;;;;;19.09;80.64355;942.8806;;;;
2020/07/22 05:15:41;;;;;;;6.1;4.4;;;;;;;19.28;80.28027;942.8819;;;;
2020/07/22 05:18:08;;;;;;;6.8;4.4;;;;;;;19.58;79.31055;942.9063;;;;
2020/07/22 05:20:33;;;;;;;4.7;3.9;;;;;;;19.95;77.86035;942.8959;;;;
2020/07/22 05:23:00;;;;;;;9.2;4.2;;;;;;;20.51;75.63477;942.8825;;;;
2020/07/22 05:25:25;;;;;;;4.6;3.8;;;;;;;21.16;71.8623;942.9133;;;;
2020/07/22 05:27:50;;;;;;;5;3.9;;;;;;;21.45;71.26367;942.9671;;;;
2020/07/22 05:30:28;;;;;;;4.9;3.8;;;;;;;21.7;70.76563;942.8808;;;;
2020/07/22 05:32:53;;;;;;;9.3;3.8;;;;;;;21.6;71.79199;942.9584;;;;
2020/07/22 05:35:27;;;;;;;5;3.7;;;;;;;21.51;71.61426;942.9339;;;;
2020/07/22 05:37:54;;;;;;;5;3.6;;;;;;;21.77;70.44922;943.015;;;;
2020/07/22 05:40:19;;;;;;;5.1;3.4;;;;;;;21.75;69.83691;942.9944;;;;
2020/07/22 05:42:46;;;;;;;6.4;4.1;;;;;;;21.77;69.66406;943.0256;;;;
2020/07/22 05:45:11;;;;;;;5.1;3.9;;;;;;;21.68;69.75488;943.105;;;;
2020/07/22 05:47:36;;;;;;;5.1;4.1;;;;;;;21.59;70.66602;943.0955;;;;
2020/07/22 05:50:06;;;;;;;5.1;3.8;;;;;;;21.43;71.41406;943.1369;;;;
2020/07/22 05:52:31;;;;;;;6.5;4.3;;;;;;;21.21;73.14551;943.1525;;;;
2020/07/22 05:54:57;;;;;;;7.8;4.3;;;;;;;21.07;73.05176;943.2442;;;;
2020/07/22 05:57:22;;;;;;;7;4.3;;;;;;;20.56;76.88184;943.1703;;;;
2020/07/22 05:59:48;;;;;;;6.3;4.6;;;;;;;20.05;78.71777;943.1847;;;;
2020/07/22 06:02:14;;;;;;;5.4;4.6;;;;;;;19.99;78.60156;943.1401;;;;
2020/07/22 06:04:40;;;;;;;4.9;4.3;;;;;;;19.99;78.8916;943.1387;;;;
2020/07/22 06:07:10;;;;;;;6;4.6;;;;;;;19.98;79.10156;943.1525;;;;
2020/07/22 06:09:39;;;;;;;5.8;4.7;;;;;;;20.02;79.33203;943.1933;;;;
2020/07/22 06:12:07;;;;;;;9.6;5;;;;;;;20.03;79.33301;943.2271;;;;
2020/07/22 06:14:32;;;;;;;10.2;5;;;;;;;19.86;80.65527;943.1951;;;;
2020/07/22 06:16:57;;;;;;;10.1;4.9;;;;;;;20.23;79.24023;943.226;;;;
2020/07/22 06:19:25;;;;;;;7.9;4.9;;;;;;;20.4;77.92676;943.3116;;;;
2020/07/22 06:21:51;;;;;;;11.5;4.8;;;;;;;20.87;76.30273;943.3019;;;;
2020/07/22 06:24:16;;;;;;;15.8;5.1;;;;;;;20.96;74.7041;943.2449;;;;
2020/07/22 06:26:41;;;;;;;9.2;4.7;;;;;;;21.27;74.20801;943.2466;;;;
2020/07/22 06:29:06;;;;;;;10.3;4.4;;;;;;;21.6;72.98633;943.2631;;;;
2020/07/22 06:31:31;;;;;;;6.1;3.9;;;;;;;22.26;70.21094;943.307;;;;
2020/07/22 06:33:57;;;;;;;7.3;4.2;;;;;;;22.98;67.21289;943.2972;;;;
2020/07/22 06:36:22;;;;;;;7.6;4.5;;;;;;;23.15;67.16602;943.2264;;;;
2020/07/22 06:38:48;;;;;;;5.4;4;;;;;;;23.71;64.69629;943.2714;;;;
2020/07/22 06:41:13;;;;;;;5.3;4.3;;;;;;;23.95;63.68555;943.2172;;;;
2020/07/22 06:43:40;;;;;;;6.8;4.1;;;;;;;24.08;63.0459;943.2486;;;;
2020/07/22 06:46:05;;;;;;;6.6;4.5;;;;;;;23.96;63.03906;943.3617;;;;
2020/07/22 06:48:31;;;;;;;5.8;4.3;;;;;;;23.57;64.7959;943.3845;;;;
2020/07/22 06:50:56;;;;;;;7.9;4.6;;;;;;;23.21;65.60254;943.3747;;;;
2020/07/22 06:53:23;;;;;;;5;4.3;;;;;;;23.36;65.99902;943.377;;;;
2020/07/22 06:55:48;;;;;;;6;4.5;;;;;;;23.6;62.7998;943.3005;;;;
2020/07/22 06:58:17;;;;;;;5.5;4.2;;;;;;;23.68;62;943.2748;;;;
2020/07/22 07:00:50;;;;;;;10.6;4.4;;;;;;;24.72;60.16309;943.2755;;;;
2020/07/22 07:03:15;;;;;;;10;4.2;;;;;;;25.43;57.31738;943.238;;;;
2020/07/22 07:05:46;;;;;;;8.3;4.2;;;;;;;25.96;56.33398;943.2782;;;;
2020/07/22 07:08:14;;;;;;;7.4;3.9;;;;;;;26.5;55.20703;943.2094;;;;
2020/07/22 07:10:39;;;;;;;8.1;4.4;;;;;;;27.07;52.39453;943.108;;;;
2020/07/22 07:13:05;;;;;;;9;4.6;;;;;;;27.46;51.82324;943.0656;;;;
2020/07/22 07:15:40;;;;;;;7;4.8;;;;;;;27.24;52.14258;943.0519;;;;
2020/07/22 07:18:05;;;;;;;7.5;4.8;;;;;;;27.6;51.15137;943.0488;;;;
2020/07/22 07:20:34;;;;;;;7.5;4.9;;;;;;;28.26;49.85938;943.0417;;;;
2020/07/22 07:22:59;;;;;;;9.4;4.9;;;;;;;29.34;48.13281;943.1219;;;;
2020/07/22 07:25:26;;;;;;;6.4;4.2;;;;;;;30.45;43.36621;943.1587;;;;
2020/07/22 07:27:51;;;;;;;6.9;3.8;;;;;;;31.12;42.3291;943.097;;;;
2020/07/22 07:30:16;;;;;;;6.5;3.7;;;;;;;32.34;40.89746;943.1174;;;;
2020/07/22 07:32:43;;;;;;;6.9;3.6;;;;;;;32.43;41.38477;943.0818;;;;
2020/07/22 07:35:08;;;;;;;6.1;3.5;;;;;;;34.05;36.53613;943.1011;;;;
2020/07/22 07:37:36;;;;;;;4.8;3.2;;;;;;;33.48;38.47559;942.9973;;;;
2020/07/22 07:40:03;;;;;;;4;3.3;;;;;;;34.07;35.69531;943.1102;;;;
2020/07/22 07:42:28;;;;;;;5.6;3.1;;;;;;;34.06;35.57422;943.058;;;;
2020/07/22 07:44:54;;;;;;;6.5;3.4;;;;;;;32.25;39.85645;943.0659;;;;
2020/07/22 07:47:20;;;;;;;6.3;3.4;;;;;;;31.8;39.75781;943.0298;;;;
2020/07/22 07:49:48;;;;;;;9.6;3.9;;;;;;;30.75;44.04102;943.0742;;;;
2020/07/22 07:52:14;;;;;;;14;3.4;;;;;;;31.06;44.8125;943.0422;;;;
2020/07/22 07:54:40;;;;;;;6.7;3.9;;;;;;;32.3;40.1377;943.0316;;;;
2020/07/22 07:57:05;;;;;;;7;3.4;;;;;;;32.77;41.04297;943.0385;;;;
2020/07/22 07:59:32;;;;;;;6.1;3.4;;;;;;;34.26;37.34863;943.0192;;;;
2020/07/22 08:02:02;;;;;;;8.6;3.2;;;;;;;34.48;37.18555;943.0806;;;;
2020/07/22 08:04:26;;;;;;;6.2;3.7;;;;;;;35.02;34.58691;943.05;;;;
2020/07/22 08:06:51;;;;;;;5.7;3.4;;;;;;;34.69;35.6709;942.9677;;;;
2020/07/22 08:09:18;;;;;;;4.1;3.3;;;;;;;35.35;34.33496;942.9397;;;;
2020/07/22 08:11:43;;;;;;;5.8;3.4;;;;;;;35.64;35.10547;942.9141;;;;
2020/07/22 08:14:08;;;;;;;4.6;3;;;;;;;36.75;32.65918;942.884;;;;
2020/07/22 08:16:35;;;;;;;6.5;3.4;;;;;;;37.2;30.95801;942.8703;;;;
2020/07/22 08:19:00;;;;;;;4.4;3.2;;;;;;;37.32;31.98438;942.8373;;;;
2020/07/22 08:21:25;;;;;;;4.4;2.9;;;;;;;36.85;31.58887;942.8211;;;;
2020/07/22 08:23:50;;;;;;;5.2;3.1;;;;;;;36.26;33.56836;942.7938;;;;
2020/07/22 08:26:15;;;;;;;5.8;3.3;;;;;;;36.15;33.125;942.7975;;;;
2020/07/22 08:28:40;;;;;;;6.2;3.2;;;;;;;36.03;32.29395;942.6903;;;;
2020/07/22 08:31:09;;;;;;;6.1;3.2;;;;;;;36.34;34.25195;942.7238;;;;
2020/07/22 08:33:34;;;;;;;4.6;3.1;;;;;;;36.67;32.50879;942.7147;;;;
2020/07/22 08:35:59;;;;;;;4.7;2.7;;;;;;;37.32;31.30566;942.7211;;;;
2020/07/22 08:38:31;;;;;;;5.7;2.6;;;;;;;37.58;31.00781;942.7219;;;;
2020/07/22 08:40:59;;;;;;;5.1;3.2;;;;;;;37.52;31.0166;942.6145;;;;
2020/07/22 08:43:24;;;;;;;7.1;2.9;;;;;;;36.81;32.24121;942.6451;;;;
2020/07/22 08:45:52;;;;;;;5.7;2.9;;;;;;;36.49;33.19727;942.6422;;;;
2020/07/22 08:48:17;;;;;;;5.8;3.2;;;;;;;36.35;33.44141;942.6337;;;;
2020/07/22 08:50:43;;;;;;;4.7;3;;;;;;;36.38;32.64551;942.5818;;;;
2020/07/22 08:53:08;;;;;;;7.3;3;;;;;;;35.91;33.68848;942.5591;;;;
2020/07/22 08:55:34;;;;;;;6.2;3.3;;;;;;;35.91;32.99902;942.5619;;;;
2020/07/22 08:57:59;;;;;;;6;3.1;;;;;;;35.93;33.87012;942.575;;;;
2020/07/22 09:00:28;;;;;;;4.5;3.1;;;;;;;35.65;33.4873;942.5867;;;;
2020/07/22 09:02:58;;;;;;;5.4;3.1;;;;;;;35.55;32.80371;942.6047;;;;
2020/07/22 09:05:23;;;;;;;9.7;3.4;;;;;;;34.52;35.9834;942.6622;;;;
2020/07/22 09:07:48;;;;;;;4.7;3;;;;;;;34.4;35.02246;942.6401;;;;
2020/07/22 09:10:23;;;;;;;6.7;3.4;;;;;;;34.07;35.62305;942.634;;;;
2020/07/22 09:13:02;;;;;;;5.1;3.3;;;;;;;33.14;37.66504;942.5984;;;;
2020/07/22 09:15:35;;;;;;;5.8;3.3;;;;;;;33.01;39.05957;942.6713;;;;
2020/07/22 09:18:00;;;;;;;7.1;3.3;;;;;;;32.09;40.34668;942.6451;;;;
2020/07/22 09:20:29;;;;;;;7.9;4;;;;;;;31.47;40.55566;942.6458;;;;
2020/07/22 09:22:55;;;;;;;5.6;3.4;;;;;;;31.32;41.55859;942.6188;;;;
2020/07/22 09:25:23;;;;;;;6.4;3.5;;;;;;;30.98;42.9502;942.5611;;;;
2020/07/22 09:27:50;;;;;;;9.8;4.5;;;;;;;30.66;43.18262;942.4789;;;;
2020/07/22 09:30:16;;;;;;;8.1;4.3;;;;;;;30.1;44.50293;942.4383;;;;
2020/07/22 09:32:42;;;;;;;7.4;4.1;;;;;;;29.98;46.05273;942.4444;;;;
2020/07/22 09:35:06;;;;;;;7.9;4.3;;;;;;;30.18;44.21191;942.4525;;;;
2020/07/22 09:37:31;;;;;;;5.8;3.9;;;;;;;30.52;46.32324;942.3875;;;;
2020/07/22 09:39:56;;;;;;;6.5;3.9;;;;;;;31.17;45.25293;942.387;;;;
2020/07/22 09:42:22;;;;;;;6;3.5;;;;;;;31.4;43.51758;942.3699;;;;
2020/07/22 09:44:46;;;;;;;4.8;3.6;;;;;;;31.86;43.40527;942.3361;;;;
2020/07/22 09:47:14;;;;;;;7.4;4;;;;;;;32.15;43.85352;942.3041;;;;
2020/07/22 09:49:38;;;;;;;5.8;3.6;;;;;;;32.41;42.90625;942.2647;;;;
2020/07/22 09:52:03;;;;;;;5.3;3.5;;;;;;;32.7;39.77734;942.2181;;;;
2020/07/22 09:54:29;;;;;;;6.1;3.7;;;;;;;32.82;41.55273;942.3153;;;;
2020/07/22 09:56:58;;;;;;;6.5;3.7;;;;;;;32.48;40.53809;942.2662;;;;
2020/07/22 09:59:24;;;;;;;6;3.8;;;;;;;32.26;42.65234;942.2142;;;;
2020/07/22 10:01:56;;;;;;;7.4;3.5;;;;;;;32.23;42.74609;942.1181;;;;
2020/07/22 10:04:33;;;;;;;6;3.6;;;;;;;31.47;43.46484;942.1211;;;;
2020/07/22 10:06:53;;;;;;;4.8;3.5;;;;;;;31.18;45.02832;942.1149;;;;
2020/07/22 10:09:20;;;;;;;5.5;3.8;;;;;;;30.73;45.49707;942.0748;;;;
2020/07/22 10:11:42;;;;;;;5.4;4;;;;;;;30.12;46.40137;942.123;;;;
2020/07/22 10:14:10;;;;;;;6.7;3.9;;;;;;;29.75;47.73438;942.0276;;;;
2020/07/22 10:16:38;;;;;;;7;4.1;;;;;;;29.26;48.25488;942.0316;;;;
2020/07/22 10:19:04;;;;;;;7.9;3.6;;;;;;;29.68;49.22949;941.9281;;;;
2020/07/22 10:21:33;;;;;;;6.7;4.1;;;;;;;30.18;47.20703;941.9756;;;;
2020/07/22 10:23:58;;;;;;;5.3;3.4;;;;;;;30.31;47.38867;941.9701;;;;
2020/07/22 10:26:23;;;;;;;5.1;3.3;;;;;;;30.58;45.24219;941.9167;;;;
2020/07/22 10:28:48;;;;;;;5;4;;;;;;;30.54;44.13867;941.8864;;;;
2020/07/22 10:31:14;;;;;;;5.2;3.3;;;;;;;30.54;45.38184;941.8566;;;;
2020/07/22 10:33:44;;;;;;;5.3;3.7;;;;;;;30.66;46.12305;941.8445;;;;
2020/07/22 10:36:10;;;;;;;6.1;3.5;;;;;;;30.09;45.75488;941.7787;;;;
2020/07/22 10:38:36;;;;;;;6.6;3.7;;;;;;;29.67;46.17676;941.7442;;;;
2020/07/22 10:41:01;;;;;;;8.6;3.9;;;;;;;29.3;48.30762;941.6998;;;;
2020/07/22 10:43:28;;;;;;;10;5.2;;;;;;;29.15;49.81543;941.627;;;;
2020/07/22 10:45:55;;;;;;;10.4;5.2;;;;;;;29.48;48.8623;941.5328;;;;
2020/07/22 10:48:23;;;;;;;6.5;4.4;;;;;;;30.33;47.5332;941.5073;;;;
2020/07/22 10:50:51;;;;;;;8.7;4.2;;;;;;;30.8;44.4873;941.5637;;;;
2020/07/22 10:53:16;;;;;;;5.8;3.6;;;;;;;30.91;45.4668;941.5469;;;;
2020/07/22 10:55:41;;;;;;;6.8;4.3;;;;;;;30.55;44.86914;941.5023;;;;
2020/07/22 10:58:08;;;;;;;5.9;3.6;;;;;;;30.15;45.64063;941.3499;;;;
2020/07/22 11:00:35;;;;;;;7.8;4.6;;;;;;;30.17;46.07324;941.3695;;;;
2020/07/22 11:03:00;;;;;;;10;5.1;;;;;;;29.76;46.38965;941.3854;;;;
2020/07/22 11:05:30;;;;;;;6.5;3.6;;;;;;;29.5;47.41113;941.3967;;;;
2020/07/22 11:07:55;;;;;;;5;3.6;;;;;;;28.96;48.4502;941.358;;;;
2020/07/22 11:10:21;;;;;;;6.4;3.7;;;;;;;28.51;49.92383;941.3439;;;;
2020/07/22 11:12:46;;;;;;;7.1;3.9;;;;;;;28.23;50.64063;941.3727;;;;
2020/07/22 11:15:22;;;;;;;7.3;4.7;;;;;;;27.82;51.46191;941.4257;;;;
2020/07/22 11:17:47;;;;;;;6.4;4.2;;;;;;;27.08;52.90723;941.4637;;;;
2020/07/22 11:20:24;;;;;;;12.6;5;;;;;;;26.4;55.12207;941.4997;;;;
2020/07/22 11:22:49;;;;;;;7.4;4.7;;;;;;;26.71;54.52051;941.5149;;;;
2020/07/22 11:25:21;;;;;;;11.2;4.4;;;;;;;26.69;54.93262;941.4486;;;;
2020/07/22 11:27:48;;;;;;;5.9;4.5;;;;;;;26.94;55.76953;941.4261;;;;
2020/07/22 11:30:15;;;;;;;8.9;4.4;;;;;;;27.06;54.43359;941.3611;;;;
2020/07/22 11:32:40;;;;;;;6.6;4.3;;;;;;;27.09;54.93457;941.2536;;;;
2020/07/22 11:35:12;;;;;;;7.8;4.4;;;;;;;26.99;55.7041;941.3405;;;;
2020/07/22 11:37:39;;;;;;;12.5;5.9;;;;;;;26.95;58.93457;941.3455;;;;
2020/07/22 11:40:04;;;;;;;15.5;5.9;;;;;;;26.9;60.63574;941.3774;;;;
2020/07/22 11:42:32;;;;;;;14.2;5.9;;;;;;;26.77;60.71191;941.3957;;;;
2020/07/22 11:44:57;;;;;;;7.7;5.1;;;;;;;26.59;61.56445;941.4121;;;;
2020/07/22 11:47:23;;;;;;;9.7;5.2;;;;;;;26.56;61.6543;941.4119;;;;
2020/07/22 11:49:48;;;;;;;10.5;5.1;;;;;;;26.39;62.66113;941.3333;;;;
2020/07/22 11:52:17;;;;;;;8.1;5.1;;;;;;;26.42;62.57031;941.3311;;;;
2020/07/22 11:54:42;;;;;;;9.8;4.8;;;;;;;26.51;64.32422;941.3007;;;;
2020/07/22 11:57:09;;;;;;;6.9;5;;;;;;;26.48;65.60938;941.2975;;;;
2020/07/22 11:59:35;;;;;;;6.8;4.7;;;;;;;26.37;62.59961;941.2313;;;;
2020/07/22 12:02:00;;;;;;;7.1;4.5;;;;;;;26.3;62.69531;941.293;;;;
2020/07/22 12:04:25;;;;;;;8.5;4.8;;;;;;;25.99;63.96484;941.3337;;;;
2020/07/22 12:06:50;;;;;;;7.1;4.6;;;;;;;26.45;64.98828;941.3162;;;;
2020/07/22 12:09:25;;;;;;;7.9;4.8;;;;;;;26.59;61.91797;941.3234;;;;
2020/07/22 12:11:46;;;;;;;7.3;4.7;;;;;;;26.99;62.34082;941.2797;;;;
2020/07/22 12:14:12;;;;;;;9;4.8;;;;;;;27.18;63.20898;941.2303;;;;
2020/07/22 12:16:41;;;;;;;7.8;4.7;;;;;;;27.23;61.75977;941.1581;;;;
2020/07/22 12:19:11;;;;;;;5.7;4.7;;;;;;;27.01;59.53613;941.1165;;;;
2020/07/22 12:21:41;;;;;;;8.6;4.5;;;;;;;27.04;60.23926;941.1169;;;;
2020/07/22 12:24:09;;;;;;;5.6;4.5;;;;;;;27.16;58.47559;941.1005;;;;
2020/07/22 12:26:34;;;;;;;7;4.4;;;;;;;27.31;59.90723;941.0783;;;;
2020/07/22 12:29:02;;;;;;;4.8;4.3;;;;;;;27.17;58.54883;941.084;;;;
2020/07/22 12:31:30;;;;;;;7.1;4.3;;;;;;;26.99;58.9043;941.074;;;;
2020/07/22 12:33:59;;;;;;;9.7;4.6;;;;;;;26.57;62.01074;941.0847;;;;
2020/07/22 12:36:24;;;;;;;7.4;4.7;;;;;;;26.37;62.00781;941.1309;;;;
2020/07/22 12:38:49;;;;;;;7.7;4.1;;;;;;;26.34;61.09082;941.1247;;;;
2020/07/22 12:41:19;;;;;;;7.3;4.9;;;;;;;26.27;63.4834;941.0474;;;;
2020/07/22 12:43:44;;;;;;;6.7;4.7;;;;;;;26.11;62.23145;940.9777;;;;
2020/07/22 12:46:10;;;;;;;8.2;4.9;;;;;;;26.34;62.2168;940.986;;;;
2020/07/22 12:48:35;;;;;;;6.9;4.4;;;;;;;25.81;63.69141;940.9709;;;;
2020/07/22 12:51:00;;;;;;;6.4;4.6;;;;;;;25.76;63.93262;940.9397;;;;
2020/07/22 12:53:25;;;;;;;6.3;4.7;;;;;;;25.85;62.57324;940.9067;;;;
2020/07/22 12:55:50;;;;;;;4.9;4.4;;;;;;;25.4;63.95215;940.8889;;;;
2020/07/22 12:58:15;;;;;;;6.4;4.6;;;;;;;25.68;63.41309;940.8203;;;;
2020/07/22 13:00:45;;;;;;;6.4;4.8;;;;;;;26.07;61.63477;940.7109;;;;
2020/07/22 13:03:15;;;;;;;5.6;4.1;;;;;;;26.16;60.28711;940.7196;;;;
2020/07/22 13:05:45;;;;;;;6.9;4.1;;;;;;;26.28;60.90625;940.7206;;;;
2020/07/22 13:08:10;;;;;;;7.3;4.6;;;;;;;26.43;62.48828;940.7762;;;;
2020/07/22 13:10:40;;;;;;;13;6.5;;;;;;;26.44;65.93457;940.8045;;;;
2020/07/22 13:13:10;;;;;;;10.6;5.6;;;;;;;26.19;66.30078;940.8292;;;;
2020/07/22 13:15:48;;;;;;;8.1;5.7;;;;;;;26.22;66.79102;940.786;;;;
2020/07/22 13:18:17;;;;;;;6.7;5.3;;;;;;;25.89;67.79395;940.8436;;;;
2020/07/22 13:20:42;;;;;;;10.3;6.2;;;;;;;25.66;69.05762;940.9116;;;;
2020/07/22 13:23:10;;;;;;;8.4;5.5;;;;;;;25.71;70.76855;940.8672;;;;
2020/07/22 13:25:35;;;;;;;8.1;5.3;;;;;;;25.43;70.68848;940.8331;;;;
2020/07/22 13:28:01;;;;;;;9.4;5.5;;;;;;;25.39;70.14941;940.7133;;;;
2020/07/22 13:30:36;;;;;;;8.1;5.5;;;;;;;25.36;72.08203;940.6575;;;;
2020/07/22 13:33:01;;;;;;;7.7;5.5;;;;;;;25.54;71.4502;940.6415;;;;
2020/07/22 13:35:31;;;;;;;10.3;5.5;;;;;;;25.88;69.74121;940.6353;;;;
2020/07/22 13:37:56;;;;;;;10.1;5.6;;;;;;;26.33;70.07324;940.5533;;;;
2020/07/22 13:40:27;;;;;;;11.2;6.4;;;;;;;26.66;69.25977;940.5595;;;;
2020/07/22 13:42:59;;;;;;;9.6;5.5;;;;;;;26.9;66.93945;940.5944;;;;
2020/07/22 13:45:27;;;;;;;7.5;5.3;;;;;;;26.86;66.45898;940.6425;;;;
2020/07/22 13:47:52;;;;;;;8.2;5;;;;;;;25.75;68.04492;940.6612;;;;
2020/07/22 13:50:19;;;;;;;8.3;4.8;;;;;;;25.54;69.37109;940.6295;;;;
2020/07/22 13:52:48;;;;;;;6.5;4.5;;;;;;;26.01;67.7627;940.5364;;;;
2020/07/22 13:55:14;;;;;;;6.2;4.3;;;;;;;26.56;65.04102;940.4431;;;;
2020/07/22 13:57:41;;;;;;;6.1;4.4;;;;;;;26.95;63.96094;940.4716;;;;
2020/07/22 14:00:06;;;;;;;5.8;4.2;;;;;;;26.69;62.42969;940.4446;;;;
2020/07/22 14:02:31;;;;;;;6;4.2;;;;;;;26.42;62.86621;940.4425;;;;
2020/07/22 14:04:59;;;;;;;5.3;4.2;;;;;;;26.18;63.04492;940.3939;;;;
2020/07/22 14:07:24;;;;;;;8.3;4.4;;;;;;;26.36;63.43652;940.2773;;;;
2020/07/22 14:09:49;;;;;;;6;4.4;;;;;;;26.53;62.28906;940.26;;;;
2020/07/22 14:12:15;;;;;;;5.1;4;;;;;;;26.75;63.72852;940.2709;;;;
2020/07/22 14:14:44;;;;;;;5.5;4.3;;;;;;;26.8;62.10156;940.3066;;;;
2020/07/22 14:17:08;;;;;;;5.7;4.2;;;;;;;26.55;62.25586;940.3484;;;;
2020/07/22 14:19:36;;;;;;;8;4.1;;;;;;;26.33;63.91992;940.3834;;;;
2020/07/22 14:22:02;;;;;;;5.6;4;;;;;;;25.67;63.11523;940.4119;;;;
2020/07/22 14:24:28;;;;;;;6.8;3.8;;;;;;;25.99;63.6582;940.3161;;;;
2020/07/22 14:26:53;;;;;;;8.6;4;;;;;;;26.41;62.00098;940.265;;;;
2020/07/22 14:29:46;;;;;;;6.7;4.2;;;;;;;26.41;59.49121;940.2258;;;;
2020/07/22 14:31:46;;;;;;;7.5;4.1;;;;;;;26.41;60.9707;940.2291;;;;
2020/07/22 14:34:11;;;;;;;5.8;3.9;;;;;;;26.57;60.49512;940.1403;;;;
2020/07/22 14:36:36;;;;;;;6.5;3.8;;;;;;;26.7;59.64746;940.1271;;;;
2020/07/22 14:39:15;;;;;;;4.5;3.7;;;;;;;26.58;61.07715;940.1497;;;;
2020/07/22 14:41:31;;;;;;;7.4;4.4;;;;;;;26.67;60.81641;940.0826;;;;
2020/07/22 14:43:55;;;;;;;6;4;;;;;;;26.85;61.44531;939.998;;;;
2020/07/22 14:46:21;;;;;;;5.8;4;;;;;;;27.02;61.69434;940.0173;;;;
2020/07/22 14:51:21;;;;;;;6.7;4.3;;;;;;;27.01;61.3125;940.072;;;;
2020/07/22 14:53:52;;;;;;;5.4;4.3;;;;;;;26.9;60.95508;940.0916;;;;
2020/07/22 14:56:07;;;;;;;5.6;4.7;;;;;;;26.5;62.32129;940.069;;;;
2020/07/22 14:58:32;;;;;;;6.5;4.4;;;;;;;26.14;64.67285;940.1149;;;;
2020/07/22 15:01:02;;;;;;;6.9;4.8;;;;;;;25.74;66.19824;940.0215;;;;
2020/07/22 15:03:28;;;;;;;7.1;4.5;;;;;;;25.92;65.92969;940.0061;;;;
2020/07/22 15:05:58;;;;;;;7.3;4.7;;;;;;;25.78;65.31836;940.025;;;;
2020/07/22 15:08:20;;;;;;;7.9;4.7;;;;;;;25.54;63.59277;940.0073;;;;
2020/07/22 15:10:48;;;;;;;5.6;4.7;;;;;;;25.21;64.75;939.9808;;;;
2020/07/22 15:13:12;;;;;;;6.9;4.5;;;;;;;25.06;65.94531;939.8381;;;;
2020/07/22 15:15:45;;;;;;;7.3;4.5;;;;;;;25.05;67.27734;939.8077;;;;
2020/07/22 15:18:12;;;;;;;7.5;4.7;;;;;;;24.98;69.2002;939.7679;;;;